Time;durP1;ratioP1;P1;durP2;ratioP2;P2;SDS_P1;SDS_P2;PMS_P1;PMS_P2;Temp;Humidity;BMP_temperature;BMP_pressure;BME280_temperature;BME280_humidity;BME280_pressure;Samples;Min_cycle;Max_cycle;Signal;HPM_P1;HPM_P2
2023/03/01 00:01:31;;;;;;;1.88;1.33;;;3.80;55.20;;;;;;5033477;28;20203;-60
2023/03/01 00:03:58;;;;;;;1.02;0.93;;;3.80;55.20;;;;;;5030048;28;20021;-60
2023/03/01 00:06:24;;;;;;;2.40;1.13;;;3.80;55.30;;;;;;5028086;28;20033;-61
2023/03/01 00:08:50;;;;;;;1.00;0.95;;;3.80;55.40;;;;;;5036784;28;20100;-61
2023/03/01 00:11:20;;;;;;;1.70;1.30;;;3.80;55.40;;;;;;5033587;28;20024;-62
2023/03/01 00:13:47;;;;;;;1.58;0.73;;;3.80;55.60;;;;;;5027561;28;20539;-67
2023/03/01 00:16:16;;;;;;;1.10;0.98;;;3.70;55.60;;;;;;5033202;28;20028;-67
2023/03/01 00:18:42;;;;;;;1.50;1.00;;;3.70;55.70;;;;;;5030740;28;20435;-61
2023/03/01 00:21:08;;;;;;;1.35;0.80;;;3.70;55.80;;;;;;5031579;28;20029;-61
2023/03/01 00:23:34;;;;;;;0.98;0.82;;;3.70;55.90;;;;;;5011514;28;20397;-61
2023/03/01 00:26:00;;;;;;;1.67;1.13;;;3.70;56.00;;;;;;5030007;28;20038;-67
2023/03/01 00:28:26;;;;;;;1.77;1.25;;;3.60;56.00;;;;;;5017343;28;20087;-66
2023/03/01 00:30:51;;;;;;;1.30;1.00;;;3.60;56.10;;;;;;5013497;28;20057;-67
2023/03/01 00:33:17;;;;;;;2.22;0.93;;;3.60;56.30;;;;;;5010307;28;20103;-67
2023/03/01 00:35:44;;;;;;;2.25;1.13;;;3.60;56.30;;;;;;5012256;28;20393;-68
2023/03/01 00:38:10;;;;;;;1.50;1.05;;;3.50;56.40;;;;;;5035585;28;20033;-67
2023/03/01 00:40:36;;;;;;;17.92;1.40;;;3.50;56.40;;;;;;5040225;28;20119;-67
2023/03/01 00:43:03;;;;;;;1.60;1.35;;;3.50;56.50;;;;;;5024810;28;20034;-68
2023/03/01 00:45:30;;;;;;;2.40;1.02;;;3.50;56.50;;;;;;5024963;28;20025;-67
2023/03/01 00:47:56;;;;;;;2.80;1.55;;;3.50;56.60;;;;;;5031918;28;20504;-67
2023/03/01 00:50:23;;;;;;;3.45;0.82;;;3.50;56.60;;;;;;5028923;28;20057;-68
2023/03/01 00:52:53;;;;;;;1.42;1.33;;;3.50;56.60;;;;;;5032736;28;20095;-67
2023/03/01 00:55:19;;;;;;;1.98;1.20;;;3.50;56.60;;;;;;5016977;28;20033;-68
2023/03/01 00:57:44;;;;;;;1.65;0.95;;;3.50;56.70;;;;;;5006175;28;20040;-68
2023/03/01 01:00:11;;;;;;;1.52;1.30;;;3.40;56.60;;;;;;5029279;28;20114;-67
2023/03/01 01:02:37;;;;;;;2.47;1.58;;;3.40;56.70;;;;;;5023422;28;20021;-67
2023/03/01 01:05:03;;;;;;;1.20;1.02;;;3.40;56.70;;;;;;5035285;28;20047;-67
2023/03/01 01:07:29;;;;;;;1.63;1.35;;;3.40;56.90;;;;;;5035391;28;20029;-68
2023/03/01 01:09:55;;;;;;;2.15;1.67;;;3.40;57.00;;;;;;5025459;28;20064;-66
2023/03/01 01:12:20;;;;;;;2.97;1.77;;;3.30;57.00;;;;;;5038101;28;20036;-66
2023/03/01 01:14:46;;;;;;;2.08;1.67;;;3.30;57.00;;;;;;5023442;28;20488;-61
2023/03/01 01:17:12;;;;;;;4.47;1.73;;;3.30;57.00;;;;;;5013198;28;20473;-61
2023/03/01 01:19:37;;;;;;;3.15;1.98;;;3.30;57.10;;;;;;5028502;28;20420;-62
2023/03/01 01:22:03;;;;;;;2.42;1.80;;;3.20;57.10;;;;;;5012788;28;20026;-61
2023/03/01 01:24:29;;;;;;;3.30;2.03;;;3.20;57.00;;;;;;5014437;28;20025;-67
2023/03/01 01:26:55;;;;;;;1.98;1.17;;;3.20;57.20;;;;;;5030366;28;20026;-66
2023/03/01 01:29:21;;;;;;;2.63;1.75;;;3.20;57.20;;;;;;5023378;28;20102;-65
2023/03/01 01:31:47;;;;;;;1.67;1.55;;;3.20;57.20;;;;;;5001248;28;20037;-66
2023/03/01 01:34:15;;;;;;;4.07;1.98;;;3.20;57.20;;;;;;5023522;28;20082;-60
2023/03/01 01:36:41;;;;;;;3.30;1.75;;;3.20;57.20;;;;;;5024460;28;20026;-61
2023/03/01 01:39:07;;;;;;;2.85;1.90;;;3.20;57.20;;;;;;5000593;28;20022;-61
2023/03/01 01:41:33;;;;;;;2.22;1.65;;;3.10;57.20;;;;;;5023811;28;20037;-60
2023/03/01 01:44:20;;;;;;;2.83;1.80;;;3.10;57.20;;;;;;5006760;28;20080;-66
2023/03/01 01:46:53;;;;;;;5.88;2.67;;;3.10;57.20;;;;;;5019782;28;20508;-66
2023/03/01 01:49:23;;;;;;;2.03;1.65;;;3.10;57.20;;;;;;5029890;28;20611;-61
2023/03/01 01:51:56;;;;;;;4.55;1.60;;;3.00;57.30;;;;;;5034151;28;20196;-60
2023/03/01 01:54:42;;;;;;;4.18;1.52;;;3.00;57.40;;;;;;5033211;28;20034;-61
2023/03/01 01:57:14;;;;;;;3.15;2.00;;;3.00;57.30;;;;;;5034520;28;20029;-61
2023/03/01 01:59:43;;;;;;;2.47;1.63;;;3.00;57.20;;;;;;5031349;28;20428;-61
2023/03/01 02:02:09;;;;;;;2.55;1.85;;;3.00;57.20;;;;;;5029872;28;20017;-60
2023/03/01 02:04:35;;;;;;;3.13;1.88;;;3.00;57.30;;;;;;5016659;28;20058;-66
2023/03/01 02:07:17;;;;;;;3.38;1.25;;;3.00;57.30;;;;;;4987187;28;20018;-62
2023/03/01 02:09:46;;;;;;;1.88;1.70;;;3.00;57.20;;;;;;4996429;28;20033;-62
2023/03/01 02:12:14;;;;;;;3.58;1.88;;;3.00;57.30;;;;;;4989812;28;20482;-62
2023/03/01 02:14:39;;;;;;;2.88;1.98;;;3.00;57.40;;;;;;4984037;28;20038;-62
2023/03/01 02:17:05;;;;;;;3.00;1.40;;;3.00;57.50;;;;;;4993113;28;20030;-62
2023/03/01 02:19:51;;;;;;;1.95;1.75;;;2.90;57.50;;;;;;4994758;28;20409;-67
2023/03/01 02:22:36;;;;;;;3.00;1.80;;;3.00;57.50;;;;;;5007889;28;20026;-67
2023/03/01 02:25:19;;;;;;;3.28;1.83;;;2.90;57.40;;;;;;4987839;28;20473;-67
2023/03/01 02:27:47;;;;;;;3.28;1.83;;;2.90;57.50;;;;;;4993117;28;20069;-69
2023/03/01 02:30:13;;;;;;;4.00;1.73;;;2.90;57.70;;;;;;4992882;28;20014;-62
2023/03/01 02:32:42;;;;;;;3.22;1.67;;;2.90;57.80;;;;;;4994455;28;20474;-62
2023/03/01 02:35:15;;;;;;;2.20;1.48;;;2.90;57.70;;;;;;4990707;28;20038;-63
2023/03/01 02:37:43;;;;;;;1.65;1.50;;;2.90;57.80;;;;;;4992242;28;20034;-62
2023/03/01 02:40:13;;;;;;;2.08;1.50;;;2.80;57.80;;;;;;4998270;28;20101;-62
2023/03/01 02:42:58;;;;;;;2.38;1.48;;;2.90;58.10;;;;;;4994178;28;20037;-63
2023/03/01 02:45:25;;;;;;;1.45;1.35;;;2.90;58.20;;;;;;5000370;28;20375;-63
2023/03/01 02:47:55;;;;;;;3.63;1.58;;;2.80;58.10;;;;;;4986579;28;20026;-69
2023/03/01 02:50:29;;;;;;;3.45;2.00;;;2.90;58.10;;;;;;4993325;28;20030;-69
2023/03/01 02:53:13;;;;;;;2.38;1.90;;;2.90;58.00;;;;;;4989652;28;20029;-63
2023/03/01 02:55:40;;;;;;;2.78;1.85;;;2.90;58.20;;;;;;4997911;28;20033;-63
2023/03/01 02:58:06;;;;;;;2.00;1.55;;;2.80;58.20;;;;;;4993581;28;20038;-63
2023/03/01 03:00:39;;;;;;;2.65;1.20;;;2.80;58.40;;;;;;4992194;28;20035;-69
2023/03/01 03:03:06;;;;;;;1.33;1.02;;;2.80;58.50;;;;;;4993600;28;20124;-68
2023/03/01 03:05:33;;;;;;;3.95;2.42;;;2.80;58.50;;;;;;5012121;28;20048;-68
2023/03/01 03:08:01;;;;;;;2.88;1.85;;;2.80;58.60;;;;;;4998579;28;20043;-62
2023/03/01 03:10:32;;;;;;;1.73;1.50;;;2.80;58.50;;;;;;5012077;28;20021;-62
2023/03/01 03:13:09;;;;;;;3.47;1.73;;;2.80;58.60;;;;;;5005243;28;20030;-62
2023/03/01 03:15:35;;;;;;;2.03;1.20;;;2.70;58.50;;;;;;5017210;28;20416;-62
2023/03/01 03:18:03;;;;;;;2.67;1.75;;;2.70;58.50;;;;;;5000237;28;20030;-62
2023/03/01 03:20:29;;;;;;;2.28;1.58;;;2.70;58.60;;;;;;5020010;28;20045;-63
2023/03/01 03:22:58;;;;;;;1.75;1.27;;;2.80;58.60;;;;;;5013439;28;20485;-63
2023/03/01 03:25:24;;;;;;;2.40;1.90;;;2.70;58.50;;;;;;5019149;28;20061;-63
2023/03/01 03:27:57;;;;;;;2.47;1.38;;;2.70;58.50;;;;;;5016087;28;20030;-63
2023/03/01 03:30:31;;;;;;;5.03;1.70;;;2.70;58.60;;;;;;5023816;28;20160;-63
2023/03/01 03:32:59;;;;;;;4.07;2.03;;;2.70;58.70;;;;;;5017167;28;20036;-63
2023/03/01 03:35:29;;;;;;;1.40;1.25;;;2.70;58.80;;;;;;5021260;28;20021;-63
2023/03/01 03:38:02;;;;;;;2.72;1.38;;;2.70;58.90;;;;;;5016117;28;20060;-64
2023/03/01 03:40:33;;;;;;;;;;;2.70;58.90;;;;;;5016771;28;20126;-64
2023/03/01 03:42:59;;;;;;;2.33;1.63;;;2.60;59.00;;;;;;5009154;28;19917;-62
2023/03/01 03:45:24;;;;;;;1.85;1.60;;;2.60;59.20;;;;;;5010221;28;20030;-62
2023/03/01 03:47:50;;;;;;;1.90;1.55;;;2.60;59.20;;;;;;4989960;28;20018;-63
2023/03/01 03:50:18;;;;;;;2.58;2.10;;;2.60;59.30;;;;;;5002899;28;20485;-62
2023/03/01 03:52:44;;;;;;;1.65;1.17;;;2.50;59.30;;;;;;5009122;28;20033;-62
2023/03/01 03:55:12;;;;;;;2.25;1.25;;;2.50;59.40;;;;;;5011104;28;20026;-62
2023/03/01 03:57:39;;;;;;;2.45;1.52;;;2.50;59.40;;;;;;5008714;28;20120;-62
2023/03/01 04:00:12;;;;;;;3.78;1.38;;;2.50;59.50;;;;;;5008913;28;20042;-62
2023/03/01 04:02:39;;;;;;;2.05;1.52;;;2.50;59.60;;;;;;5009637;28;20030;-68
2023/03/01 04:05:06;;;;;;;1.67;1.50;;;2.50;59.60;;;;;;4992827;28;20042;-68
2023/03/01 04:07:32;;;;;;;3.03;1.58;;;2.50;59.60;;;;;;5002597;28;20034;-68
2023/03/01 04:09:57;;;;;;;1.25;1.10;;;2.50;59.60;;;;;;5014507;28;20084;-62
2023/03/01 04:12:23;;;;;;;1.92;1.20;;;2.50;60.30;;;;;;5010383;28;20400;-63
2023/03/01 04:14:49;;;;;;;2.50;1.52;;;2.40;59.80;;;;;;5009384;28;20547;-63
2023/03/01 04:17:14;;;;;;;2.72;1.60;;;2.40;59.90;;;;;;5008475;28;20450;-62
2023/03/01 04:19:43;;;;;;;2.80;1.23;;;2.40;60.00;;;;;;5015531;28;20507;-63
2023/03/01 04:22:11;;;;;;;1.90;1.52;;;2.40;60.10;;;;;;5011573;28;20034;-68
2023/03/01 04:24:36;;;;;;;1.35;0.90;;;2.40;60.10;;;;;;5009159;28;20037;-68
2023/03/01 04:27:03;;;;;;;1.92;1.23;;;2.40;60.10;;;;;;5013134;28;20034;-68
2023/03/01 04:29:28;;;;;;;1.80;1.48;;;2.40;60.00;;;;;;5012838;28;20469;-68
2023/03/01 04:31:54;;;;;;;2.22;1.40;;;2.40;60.20;;;;;;5014225;28;20044;-63
2023/03/01 04:34:20;;;;;;;1.30;0.93;;;2.30;60.20;;;;;;4996815;28;20516;-62
2023/03/01 04:36:46;;;;;;;1.90;1.50;;;2.30;60.40;;;;;;5008610;28;20140;-62
2023/03/01 04:39:14;;;;;;;2.40;1.30;;;2.30;60.60;;;;;;5018038;28;20041;-63
2023/03/01 04:41:40;;;;;;;1.20;1.10;;;2.30;60.80;;;;;;5014302;28;20038;-62
2023/03/01 04:44:06;;;;;;;2.47;1.00;;;2.30;60.80;;;;;;5020926;28;20029;-62
2023/03/01 04:46:32;;;;;;;1.75;1.20;;;2.20;60.90;;;;;;5004914;28;20076;-62
2023/03/01 04:48:58;;;;;;;1.15;0.88;;;2.30;61.00;;;;;;4988509;28;20053;-63
2023/03/01 04:51:24;;;;;;;2.55;1.58;;;2.20;60.90;;;;;;5008980;28;20326;-63
2023/03/01 04:53:50;;;;;;;1.80;1.23;;;2.30;61.10;;;;;;5012668;28;20029;-68
2023/03/01 04:56:17;;;;;;;3.65;1.88;;;2.20;61.20;;;;;;4987604;28;20049;-68
2023/03/01 04:58:44;;;;;;;4.18;1.27;;;2.20;61.30;;;;;;5012303;28;20038;-69
2023/03/01 05:01:17;;;;;;;4.68;1.38;;;2.30;61.30;;;;;;5015504;28;20038;-64
2023/03/01 05:03:44;;;;;;;1.33;1.13;;;2.30;61.30;;;;;;5007045;28;20491;-64
2023/03/01 05:06:11;;;;;;;2.28;1.67;;;2.20;61.30;;;;;;5010250;28;20091;-64
2023/03/01 05:08:38;;;;;;;2.50;1.40;;;2.20;61.30;;;;;;5028335;28;20026;-64
2023/03/01 05:11:05;;;;;;;1.40;1.15;;;2.20;61.40;;;;;;5029671;28;20092;-69
2023/03/01 05:13:31;;;;;;;1.75;1.10;;;2.20;61.30;;;;;;5032103;28;20029;-64
2023/03/01 05:16:00;;;;;;;1.70;1.08;;;2.20;61.30;;;;;;5035466;28;20037;-64
2023/03/01 05:18:28;;;;;;;1.48;1.20;;;2.20;61.30;;;;;;5038273;28;20084;-63
2023/03/01 05:20:57;;;;;;;2.10;1.25;;;2.20;61.40;;;;;;5025340;28;20540;-63
2023/03/01 05:23:24;;;;;;;4.18;1.00;;;2.20;61.40;;;;;;5042618;28;20017;-69
2023/03/01 05:25:52;;;;;;;2.40;1.50;;;2.20;61.40;;;;;;5046030;28;20078;-63
2023/03/01 05:28:19;;;;;;;1.15;1.05;;;2.20;61.40;;;;;;5028440;28;20056;-63
2023/03/01 05:30:45;;;;;;;2.25;0.95;;;2.10;61.50;;;;;;5012501;28;20030;-63
2023/03/01 05:33:14;;;;;;;1.85;1.17;;;2.10;61.40;;;;;;5020936;28;20029;-63
2023/03/01 05:35:42;;;;;;;2.88;1.48;;;2.10;61.50;;;;;;5032303;28;20018;-63
2023/03/01 05:38:08;;;;;;;2.28;1.48;;;2.10;61.60;;;;;;5030851;28;20044;-63
2023/03/01 05:40:34;;;;;;;2.58;1.33;;;2.10;61.70;;;;;;5024024;28;20051;-68
2023/03/01 05:43:00;;;;;;;1.17;0.80;;;2.10;61.70;;;;;;5033726;28;20033;-63
2023/03/01 05:45:27;;;;;;;3.65;0.88;;;2.10;61.80;;;;;;4982554;28;20129;-67
2023/03/01 05:47:54;;;;;;;3.22;1.30;;;2.10;61.70;;;;;;5026685;28;20022;-62
2023/03/01 05:50:28;;;;;;;2.97;1.52;;;2.10;61.70;;;;;;5016508;28;20057;-63
2023/03/01 05:52:58;;;;;;;2.25;1.15;;;2.00;61.70;;;;;;5023893;28;20141;-63
2023/03/01 05:55:25;;;;;;;2.05;1.85;;;2.00;61.80;;;;;;5023960;28;20057;-67
2023/03/01 05:57:51;;;;;;;2.05;1.10;;;2.00;62.00;;;;;;5008723;28;20032;-71
2023/03/01 06:00:19;;;;;;;2.45;1.35;;;2.00;62.10;;;;;;5031272;28;20037;-63
2023/03/01 06:02:45;;;;;;;2.58;1.23;;;1.90;62.00;;;;;;5030377;28;20029;-64
2023/03/01 06:05:12;;;;;;;2.85;1.63;;;1.90;62.60;;;;;;5029527;28;20042;-63
2023/03/01 06:07:38;;;;;;;1.95;1.55;;;1.90;62.20;;;;;;5024335;28;20029;-64
2023/03/01 06:10:05;;;;;;;3.17;1.55;;;1.90;62.20;;;;;;5030513;28;20018;-63
2023/03/01 06:12:35;;;;;;;1.30;1.17;;;1.90;62.20;;;;;;5031999;28;20033;-64
2023/03/01 06:15:01;;;;;;;2.22;1.77;;;1.90;62.30;;;;;;5015984;28;20056;-71
2023/03/01 06:17:30;;;;;;;2.20;1.30;;;1.90;62.40;;;;;;5008747;28;20030;-64
2023/03/01 06:19:56;;;;;;;1.73;1.08;;;1.90;62.50;;;;;;5033050;28;20107;-70
2023/03/01 06:22:21;;;;;;;2.42;1.30;;;1.90;62.60;;;;;;5008748;28;20560;-63
2023/03/01 06:24:47;;;;;;;2.83;1.40;;;1.90;62.60;;;;;;5010943;28;20021;-63
2023/03/01 06:27:13;;;;;;;1.50;1.08;;;1.90;62.60;;;;;;5028559;28;20791;-70
2023/03/01 06:29:38;;;;;;;3.70;1.80;;;1.90;62.60;;;;;;5007759;28;20484;-70
2023/03/01 06:32:04;;;;;;;1.77;0.95;;;1.90;62.60;;;;;;5009290;28;20088;-70
2023/03/01 06:34:30;;;;;;;1.55;1.15;;;1.90;62.60;;;;;;5026318;28;20030;-69
2023/03/01 06:36:56;;;;;;;2.05;1.02;;;1.90;62.70;;;;;;5032170;28;20025;-64
2023/03/01 06:39:22;;;;;;;0.98;0.85;;;1.90;62.70;;;;;;5017892;28;20041;-64
2023/03/01 06:41:47;;;;;;;2.33;1.23;;;1.90;62.70;;;;;;5028662;28;20029;-63
2023/03/01 06:44:13;;;;;;;2.50;1.42;;;1.90;62.70;;;;;;5020979;28;20060;-69
2023/03/01 06:46:40;;;;;;;1.70;1.33;;;1.90;62.70;;;;;;5009477;28;20029;-69
2023/03/01 06:49:09;;;;;;;1.42;1.27;;;1.90;62.80;;;;;;5024448;28;20037;-70
2023/03/01 06:51:36;;;;;;;3.35;1.42;;;1.90;62.90;;;;;;5022728;28;20037;-69
2023/03/01 06:54:03;;;;;;;3.33;1.80;;;1.90;63.00;;;;;;5009004;28;20034;-69
2023/03/01 06:56:29;;;;;;;2.65;1.50;;;1.90;63.00;;;;;;5032866;28;20099;-69
2023/03/01 06:58:54;;;;;;;3.92;1.73;;;1.90;63.10;;;;;;5014322;28;20041;-69
2023/03/01 07:01:20;;;;;;;1.73;1.63;;;1.90;63.10;;;;;;5034690;28;20068;-69
2023/03/01 07:03:46;;;;;;;1.85;1.45;;;1.90;63.20;;;;;;5024488;28;20041;-69
2023/03/01 07:06:11;;;;;;;2.83;1.45;;;1.90;63.20;;;;;;5021877;28;20108;-70
2023/03/01 07:08:37;;;;;;;2.15;1.67;;;1.90;63.30;;;;;;5012753;28;20032;-70
2023/03/01 07:11:03;;;;;;;2.92;1.40;;;1.90;63.30;;;;;;5036953;28;20060;-63
2023/03/01 07:13:29;;;;;;;3.42;1.95;;;1.90;63.30;;;;;;5040718;28;20446;-65
2023/03/01 07:15:55;;;;;;;2.10;1.20;;;1.90;63.30;;;;;;4998986;28;20112;-64
2023/03/01 07:18:21;;;;;;;2.05;1.60;;;2.00;63.40;;;;;;5028352;28;20030;-67
2023/03/01 07:20:47;;;;;;;1.67;1.25;;;2.00;63.30;;;;;;5031960;28;20068;-68
2023/03/01 07:23:12;;;;;;;1.55;1.45;;;2.10;63.20;;;;;;5008006;28;20026;-67
2023/03/01 07:25:38;;;;;;;2.17;1.02;;;2.10;63.10;;;;;;5029424;28;20032;-68
2023/03/01 07:28:04;;;;;;;3.78;1.50;;;2.20;63.00;;;;;;5031576;28;20034;-68
2023/03/01 07:30:30;;;;;;;4.18;1.38;;;2.30;62.90;;;;;;5024640;28;20051;-67
2023/03/01 07:32:57;;;;;;;1.27;1.15;;;2.30;62.70;;;;;;4993657;28;20026;-67
2023/03/01 07:35:24;;;;;;;4.47;2.20;;;2.40;62.50;;;;;;5033215;28;20026;-64
2023/03/01 07:37:50;;;;;;;2.75;1.55;;;2.50;62.30;;;;;;5030639;28;20033;-66
2023/03/01 07:40:16;;;;;;;2.20;1.75;;;2.60;62.20;;;;;;5028707;28;20057;-63
2023/03/01 07:42:42;;;;;;;4.38;1.77;;;2.70;62.00;;;;;;5029723;28;20034;-63
2023/03/01 07:45:08;;;;;;;2.03;1.35;;;2.80;61.80;;;;;;5023706;28;20030;-63
2023/03/01 07:47:33;;;;;;;1.67;0.93;;;2.80;61.60;;;;;;5028319;28;20033;-61
2023/03/01 07:50:00;;;;;;;1.65;1.40;;;2.90;61.50;;;;;;5023613;28;20018;-62
2023/03/01 07:52:26;;;;;;;3.97;2.13;;;3.00;61.40;;;;;;5009799;28;20061;-63
2023/03/01 07:54:52;;;;;;;3.60;2.30;;;3.10;61.20;;;;;;5022296;28;20055;-62
2023/03/01 07:57:18;;;;;;;3.58;2.53;;;3.20;61.00;;;;;;5017227;28;20530;-62
2023/03/01 07:59:43;;;;;;;4.60;2.65;;;3.30;60.90;;;;;;5002019;28;20038;-62
2023/03/01 08:02:10;;;;;;;3.75;2.65;;;3.40;60.70;;;;;;5004503;28;20030;-63
2023/03/01 08:04:36;;;;;;;4.15;2.80;;;3.50;60.60;;;;;;5023723;28;20157;-69
2023/03/01 08:07:05;;;;;;;6.00;2.83;;;3.70;60.40;;;;;;5023193;28;20453;-69
2023/03/01 08:09:30;;;;;;;5.97;2.58;;;3.80;60.20;;;;;;5005423;28;20072;-68
2023/03/01 08:11:59;;;;;;;22.13;10.18;;;3.80;60.00;;;;;;5025985;28;20057;-67
2023/03/01 08:14:25;;;;;;;10.82;3.55;;;4.00;60.00;;;;;;5022574;28;20021;-62
2023/03/01 08:16:51;;;;;;;5.25;3.10;;;4.00;59.80;;;;;;5023689;28;20063;-68
2023/03/01 08:19:16;;;;;;;3.78;2.17;;;4.10;59.60;;;;;;5026265;28;20029;-68
2023/03/01 08:21:42;;;;;;;2.05;1.70;;;4.20;59.50;;;;;;4997095;28;20049;-71
2023/03/01 08:24:10;;;;;;;3.13;1.38;;;4.30;59.30;;;;;;5009231;28;20329;-62
2023/03/01 08:26:36;;;;;;;2.55;1.05;;;4.30;59.20;;;;;;5023375;28;20120;-68
2023/03/01 08:29:03;;;;;;;2.40;1.20;;;4.40;59.10;;;;;;5004287;28;20380;-68
2023/03/01 08:31:35;;;;;;;2.35;1.63;;;4.50;59.00;;;;;;5033666;28;20062;-68
2023/03/01 08:34:03;;;;;;;2.10;1.38;;;4.60;58.60;;;;;;5017546;28;20469;-68
2023/03/01 08:36:31;;;;;;;1.85;1.33;;;4.60;58.40;;;;;;5017254;28;20104;-69
2023/03/01 08:38:57;;;;;;;4.15;2.05;;;4.70;58.30;;;;;;5034188;28;20546;-69
2023/03/01 08:41:24;;;;;;;4.15;1.63;;;4.80;58.00;;;;;;5024356;28;20033;-69
2023/03/01 08:43:50;;;;;;;2.10;1.65;;;4.90;57.80;;;;;;5005264;28;20025;-62
2023/03/01 08:46:16;;;;;;;1.45;1.23;;;5.00;57.60;;;;;;5007172;28;20026;-62
2023/03/01 08:48:42;;;;;;;2.17;1.42;;;5.10;57.50;;;;;;5011107;28;20029;-63
2023/03/01 08:51:14;;;;;;;3.03;1.80;;;5.20;57.20;;;;;;4994832;28;20048;-64
2023/03/01 08:53:41;;;;;;;4.13;2.15;;;5.30;57.10;;;;;;5022856;28;20033;-63
2023/03/01 08:56:07;;;;;;;4.65;2.08;;;5.40;56.90;;;;;;5006951;28;20033;-63
2023/03/01 08:58:33;;;;;;;1.95;1.60;;;5.50;56.60;;;;;;5021652;28;20029;-63
2023/03/01 09:00:59;;;;;;;9.32;2.08;;;5.60;56.20;;;;;;5029387;28;20091;-62
2023/03/01 09:03:26;;;;;;;6.53;2.17;;;5.70;55.90;;;;;;5005540;28;20053;-63
2023/03/01 09:05:53;;;;;;;1.67;1.10;;;5.80;55.70;;;;;;5005149;28;20377;-62
2023/03/01 09:08:19;;;;;;;3.92;1.60;;;5.90;55.50;;;;;;5009333;28;20100;-62
2023/03/01 09:10:45;;;;;;;2.22;1.55;;;6.10;55.40;;;;;;5007370;28;20489;-62
2023/03/01 09:13:11;;;;;;;1.42;1.15;;;6.20;55.00;;;;;;5002171;28;20033;-62
2023/03/01 09:15:38;;;;;;;0.93;0.80;;;6.30;54.90;;;;;;5014811;28;20014;-63
2023/03/01 09:18:04;;;;;;;2.85;1.05;;;6.50;54.60;;;;;;5012711;28;20034;-62
2023/03/01 09:20:31;;;;;;;2.80;1.25;;;6.70;54.50;;;;;;4999790;28;20049;-70
2023/03/01 09:22:58;;;;;;;1.10;1.08;;;6.70;53.80;;;;;;5006329;28;20068;-68
2023/03/01 09:25:24;;;;;;;1.70;1.38;;;6.80;53.70;;;;;;5012233;28;20030;-69
2023/03/01 09:27:54;;;;;;;1.45;1.20;;;7.00;53.50;;;;;;5005748;28;20030;-70
2023/03/01 09:30:20;;;;;;;2.47;1.30;;;7.10;53.20;;;;;;5009261;28;20067;-70
2023/03/01 09:32:46;;;;;;;0.82;0.82;;;7.30;52.90;;;;;;5010687;28;20018;-63
2023/03/01 09:35:12;;;;;;;3.63;1.23;;;7.40;52.70;;;;;;5000442;28;20030;-69
2023/03/01 09:37:42;;;;;;;2.08;1.10;;;7.50;52.60;;;;;;4991498;28;20026;-63
2023/03/01 09:40:20;;;;;;;5.68;1.33;;;7.70;52.20;;;;;;5001756;28;20017;-63
2023/03/01 09:43:05;;;;;;;5.05;1.95;;;7.80;51.80;;;;;;5001407;28;20388;-63
2023/03/01 09:45:36;;;;;;;2.33;1.77;;;8.00;51.20;;;;;;4998286;28;20374;-62
2023/03/01 09:48:05;;;;;;;1.58;1.33;;;8.00;50.80;;;;;;5008491;28;20024;-64
2023/03/01 09:50:41;;;;;;;2.65;1.70;;;8.00;50.60;;;;;;5007808;28;20101;-62
2023/03/01 09:53:15;;;;;;;1.23;1.05;;;8.10;50.30;;;;;;5003914;28;20057;-62
2023/03/01 09:55:50;;;;;;;2.70;1.90;;;8.10;50.20;;;;;;5012075;28;20025;-63
2023/03/01 09:58:40;;;;;;;2.33;1.75;;;8.20;50.20;;;;;;5004579;28;20022;-63
2023/03/01 10:01:20;;;;;;;3.80;1.88;;;8.30;49.60;;;;;;5003637;28;20583;-63
2023/03/01 10:04:27;;;;;;;3.00;1.98;;;8.30;49.30;;;;;;5011495;28;20010;-70
2023/03/01 10:07:23;;;;;;;2.97;2.03;;;8.40;49.10;;;;;;4982236;28;20552;-70
2023/03/01 10:09:48;;;;;;;6.22;2.97;;;8.40;48.60;;;;;;5027480;28;20022;-70
2023/03/01 10:12:18;;;;;;;3.40;1.88;;;8.40;48.20;;;;;;5017281;28;20060;-70
2023/03/01 10:15:05;;;;;;;6.97;2.78;;;8.50;48.40;;;;;;5035880;28;20041;-70
2023/03/01 10:17:48;;;;;;;4.70;2.35;;;8.60;47.90;;;;;;5023777;28;20029;-69
2023/03/01 10:20:23;;;;;;;4.45;2.15;;;8.70;47.90;;;;;;5028963;28;20374;-68
2023/03/01 10:22:54;;;;;;;2.50;1.25;;;8.80;47.80;;;;;;5031269;28;20090;-70
2023/03/01 10:25:29;;;;;;;5.67;2.50;;;8.90;47.10;;;;;;5008011;28;20332;-69
2023/03/01 10:28:15;;;;;;;2.20;1.23;;;9.00;46.70;;;;;;5033324;28;20298;-68
2023/03/01 10:30:43;;;;;;;3.72;1.60;;;9.10;47.00;;;;;;5033069;28;20018;-69
2023/03/01 10:33:24;;;;;;;2.53;1.10;;;9.20;46.90;;;;;;5028384;28;20034;-62
2023/03/01 10:35:50;;;;;;;1.67;1.30;;;9.30;46.50;;;;;;5033372;28;20362;-69
2023/03/01 10:38:17;;;;;;;1.90;1.30;;;9.40;46.20;;;;;;5029948;28;20060;-69
2023/03/01 10:41:09;;;;;;;2.30;1.60;;;9.50;46.30;;;;;;5025634;28;20420;-69
2023/03/01 10:43:55;;;;;;;1.90;1.67;;;9.70;45.90;;;;;;5024637;28;20493;-69
2023/03/01 10:46:28;;;;;;;3.15;1.67;;;9.80;45.60;;;;;;5013673;28;20161;-68
2023/03/01 10:49:22;;;;;;;4.70;1.27;;;9.90;44.80;;;;;;5005970;28;20173;-69
2023/03/01 10:51:50;;;;;;;2.65;1.80;;;10.00;44.60;;;;;;5026413;28;20562;-69
2023/03/01 10:54:24;;;;;;;4.05;1.35;;;10.10;44.50;;;;;;5009877;28;20023;-69
2023/03/01 10:56:53;;;;;;;2.50;1.20;;;10.30;44.50;;;;;;5030773;28;20025;-69
2023/03/01 10:59:39;;;;;;;3.53;1.55;;;10.30;43.90;;;;;;5026399;28;20057;-69
2023/03/01 11:02:25;;;;;;;1.55;1.15;;;10.50;43.70;;;;;;5018861;28;20038;-69
2023/03/01 11:05:01;;;;;;;1.73;1.17;;;10.60;43.60;;;;;;5032554;28;20041;-70
2023/03/01 11:07:27;;;;;;;1.63;1.00;;;10.80;43.20;;;;;;5013870;28;20025;-69
2023/03/01 11:09:53;;;;;;;1.67;1.05;;;10.90;43.10;;;;;;5021014;28;20430;-69
2023/03/01 11:12:20;;;;;;;2.15;1.10;;;11.10;42.80;;;;;;5022969;28;20071;-69
2023/03/01 11:14:54;;;;;;;2.78;1.15;;;11.20;42.20;;;;;;5009542;28;20036;-69
2023/03/01 11:17:30;;;;;;;3.42;1.55;;;11.40;42.10;;;;;;5022241;28;20033;-69
2023/03/01 11:20:06;;;;;;;1.73;1.20;;;11.50;41.90;;;;;;5006832;28;20010;-63
2023/03/01 11:22:34;;;;;;;1.88;1.20;;;11.60;41.10;;;;;;5029018;28;20040;-67
2023/03/01 11:25:00;;;;;;;1.52;1.27;;;11.70;41.10;;;;;;5023194;28;20018;-69
2023/03/01 11:27:31;;;;;;;1.88;1.00;;;11.70;41.20;;;;;;5029209;28;20038;-69
2023/03/01 11:30:12;;;;;;;3.80;1.42;;;11.70;40.80;;;;;;5029581;28;20358;-69
2023/03/01 11:32:48;;;;;;;1.63;1.15;;;11.80;40.30;;;;;;5022679;28;20049;-69
2023/03/01 11:35:19;;;;;;;2.15;1.40;;;11.90;40.00;;;;;;5031840;28;20377;-62
2023/03/01 11:37:56;;;;;;;2.17;1.35;;;11.90;39.70;;;;;;5024430;28;20057;-63
2023/03/01 11:40:35;;;;;;;2.95;1.58;;;11.90;39.90;;;;;;5021449;28;20058;-63
2023/03/01 11:43:20;;;;;;;2.20;1.42;;;12.00;39.50;;;;;;5004966;28;20033;-63
2023/03/01 11:46:15;;;;;;;3.13;1.60;;;12.20;39.50;;;;;;5024396;28;20029;-62
2023/03/01 11:48:52;;;;;;;3.63;2.08;;;12.40;39.50;;;;;;4991070;28;20037;-63
2023/03/01 11:51:30;;;;;;;3.17;1.63;;;12.40;38.80;;;;;;5026719;28;20033;-63
2023/03/01 11:54:10;;;;;;;3.60;1.40;;;12.50;38.60;;;;;;5027775;28;20030;-64
2023/03/01 11:56:43;;;;;;;1.30;1.20;;;12.50;38.80;;;;;;5021769;28;20030;-63
2023/03/01 11:59:37;;;;;;;2.90;1.45;;;12.60;38.80;;;;;;5028357;28;20034;-69
2023/03/01 12:02:51;;;;;;;2.00;1.45;;;12.70;38.60;;;;;;5018514;28;20550;-69
2023/03/01 12:05:25;;;;;;;2.65;1.35;;;12.70;38.10;;;;;;4998049;28;20038;-68
2023/03/01 12:08:01;;;;;;;3.03;1.38;;;12.70;38.30;;;;;;5001954;28;20021;-68
2023/03/01 12:10:36;;;;;;;3.05;1.45;;;12.90;38.40;;;;;;5033110;28;20057;-68
2023/03/01 12:13:17;;;;;;;2.45;1.10;;;13.00;38.00;;;;;;5030076;28;20036;-69
2023/03/01 12:16:00;;;;;;;2.67;0.95;;;13.00;37.80;;;;;;5031730;28;20439;-69
2023/03/01 12:18:45;;;;;;;2.90;1.88;;;13.00;37.50;;;;;;5015010;28;20025;-69
2023/03/01 12:21:16;;;;;;;3.60;1.58;;;12.90;37.40;;;;;;5015640;28;20026;-63
2023/03/01 12:24:00;;;;;;;2.33;1.63;;;13.00;37.30;;;;;;5026975;28;20027;-62
2023/03/01 12:26:36;;;;;;;5.90;1.90;;;13.10;37.30;;;;;;5026750;28;20053;-62
2023/03/01 12:29:26;;;;;;;1.85;1.42;;;13.30;37.20;;;;;;5028297;28;20112;-68
2023/03/01 12:32:22;;;;;;;1.92;1.52;;;13.50;36.50;;;;;;5027211;28;20333;-68
2023/03/01 12:35:13;;;;;;;3.10;1.30;;;13.60;36.40;;;;;;5027919;28;20764;-69
2023/03/01 12:38:01;;;;;;;2.60;1.92;;;13.80;36.40;;;;;;5008084;28;20556;-69
2023/03/01 12:40:30;;;;;;;2.13;1.70;;;13.90;35.50;;;;;;5026643;28;20033;-70
2023/03/01 12:43:15;;;;;;;3.70;1.50;;;14.00;35.20;;;;;;5026409;28;20101;-69
2023/03/01 12:46:02;;;;;;;3.08;1.17;;;14.00;35.10;;;;;;5031698;28;20075;-69
2023/03/01 12:48:56;;;;;;;4.32;1.17;;;14.10;34.70;;;;;;5025640;28;20061;-69
2023/03/01 12:51:26;;;;;;;1.27;1.13;;;14.20;34.70;;;;;;5027213;28;20029;-63
2023/03/01 12:53:55;;;;;;;3.97;1.63;;;14.30;35.00;;;;;;5025802;28;20537;-69
2023/03/01 12:56:30;;;;;;;1.98;1.27;;;14.40;34.30;;;;;;5010280;28;20498;-69
2023/03/01 12:59:23;;;;;;;2.55;1.55;;;14.40;33.60;;;;;;5023549;28;20037;-68
2023/03/01 13:01:49;;;;;;;2.30;1.77;;;14.30;33.10;;;;;;5024321;28;20061;-69
2023/03/01 13:04:42;;;;;;;2.72;1.70;;;14.30;33.40;;;;;;5023807;28;20048;-69
2023/03/01 13:07:35;;;;;;;3.00;2.13;;;14.30;33.80;;;;;;5006570;28;20041;-68
2023/03/01 13:10:09;;;;;;;2.97;1.40;;;14.70;33.80;;;;;;5023237;28;20105;-62
2023/03/01 13:12:57;;;;;;;2.05;1.45;;;14.80;33.30;;;;;;5027335;28;20665;-63